sensor_id;sensor_type;location;lat;lon;timestamp;temperature;humidity
6008;DHT22;3032;49.484;11.112;2023-03-23T00:01:54;12.00;99.90
6008;DHT22;3032;49.484;11.112;2023-03-23T00:04:20;11.90;99.90
6008;DHT22;3032;49.484;11.112;2023-03-23T00:06:46;11.20;99.90
6008;DHT22;3032;49.484;11.112;2023-03-23T00:09:14;11.10;99.90
6008;DHT22;3032;49.484;11.112;2023-03-23T00:11:40;11.30;99.90
6008;DHT22;3032;49.484;11.112;2023-03-23T00:14:06;11.30;99.90
6008;DHT22;3032;49.484;11.112;2023-03-23T00:16:39;11.30;99.90
6008;DHT22;3032;49.484;11.112;2023-03-23T00:19:08;11.50;99.90
6008;DHT22;3032;49.484;11.112;2023-03-23T00:21:38;11.50;99.90
6008;DHT22;3032;49.484;11.112;2023-03-23T00:24:08;11.60;99.90
6008;DHT22;3032;49.484;11.112;2023-03-23T00:26:36;11.70;99.90
6008;DHT22;3032;49.484;11.112;2023-03-23T00:29:26;11.60;99.90
6008;DHT22;3032;49.484;11.112;2023-03-23T00:31:52;11.30;99.90
6008;DHT22;3032;49.484;11.112;2023-03-23T00:34:19;11.20;99.90
6008;DHT22;3032;49.484;11.112;2023-03-23T00:36:50;11.50;99.90
6008;DHT22;3032;49.484;11.112;2023-03-23T00:39:17;11.20;99.90
6008;DHT22;3032;49.484;11.112;2023-03-23T00:41:46;10.90;99.90
6008;DHT22;3032;49.484;11.112;2023-03-23T00:44:12;10.70;99.90
6008;DHT22;3032;49.484;11.112;2023-03-23T00:46:43;10.50;99.90
6008;DHT22;3032;49.484;11.112;2023-03-23T00:49:14;10.70;99.90
6008;DHT22;3032;49.484;11.112;2023-03-23T00:51:43;10.90;99.90
6008;DHT22;3032;49.484;11.112;2023-03-23T00:54:09;11.10;99.90
6008;DHT22;3032;49.484;11.112;2023-03-23T00:56:35;10.80;99.90
6008;DHT22;3032;49.484;11.112;2023-03-23T00:59:01;11.00;99.90
6008;DHT22;3032;49.484;11.112;2023-03-23T01:01:27;11.30;99.90
6008;DHT22;3032;49.484;11.112;2023-03-23T01:03:52;10.90;99.90
6008;DHT22;3032;49.484;11.112;2023-03-23T01:06:29;10.90;99.90
6008;DHT22;3032;49.484;11.112;2023-03-23T01:08:57;11.30;99.90
6008;DHT22;3032;49.484;11.112;2023-03-23T01:11:23;11.10;99.90
6008;DHT22;3032;49.484;11.112;2023-03-23T01:13:50;11.20;99.90
6008;DHT22;3032;49.484;11.112;2023-03-23T01:16:16;11.40;99.90
6008;DHT22;3032;49.484;11.112;2023-03-23T01:18:41;11.30;99.90
6008;DHT22;3032;49.484;11.112;2023-03-23T01:21:13;11.40;99.90
6008;DHT22;3032;49.484;11.112;2023-03-23T01:23:39;11.60;99.90
6008;DHT22;3032;49.484;11.112;2023-03-23T01:26:14;11.60;99.90
6008;DHT22;3032;49.484;11.112;2023-03-23T01:28:40;11.80;99.90
6008;DHT22;3032;49.484;11.112;2023-03-23T01:31:09;12.10;99.90
6008;DHT22;3032;49.484;11.112;2023-03-23T01:33:37;12.30;99.90
6008;DHT22;3032;49.484;11.112;2023-03-23T01:36:10;12.60;99.90
6008;DHT22;3032;49.484;11.112;2023-03-23T01:38:36;13.10;99.90
6008;DHT22;3032;49.484;11.112;2023-03-23T01:41:02;13.10;99.90
6008;DHT22;3032;49.484;11.112;2023-03-23T01:43:29;13.10;99.90
6008;DHT22;3032;49.484;11.112;2023-03-23T01:45:55;12.80;99.90
6008;DHT22;3032;49.484;11.112;2023-03-23T01:48:24;12.60;99.90
6008;DHT22;3032;49.484;11.112;2023-03-23T01:51:09;12.70;99.90
6008;DHT22;3032;49.484;11.112;2023-03-23T01:53:43;12.80;99.90
6008;DHT22;3032;49.484;11.112;2023-03-23T01:56:12;13.10;99.90
6008;DHT22;3032;49.484;11.112;2023-03-23T01:58:40;13.30;99.90
6008;DHT22;3032;49.484;11.112;2023-03-23T02:01:10;13.40;99.90
6008;DHT22;3032;49.484;11.112;2023-03-23T02:03:38;13.40;99.90
6008;DHT22;3032;49.484;11.112;2023-03-23T02:06:05;13.70;99.90
6008;DHT22;3032;49.484;11.112;2023-03-23T02:08:32;13.90;99.90
6008;DHT22;3032;49.484;11.112;2023-03-23T02:10:58;13.90;99.90
6008;DHT22;3032;49.484;11.112;2023-03-23T02:13:24;14.00;99.90
6008;DHT22;3032;49.484;11.112;2023-03-23T02:16:15;14.00;99.90
6008;DHT22;3032;49.484;11.112;2023-03-23T02:30:04;13.50;99.90
6008;DHT22;3032;49.484;11.112;2023-03-23T02:35:44;13.30;99.90
6008;DHT22;3032;49.484;11.112;2023-03-23T02:38:21;13.60;99.90
6008;DHT22;3032;49.484;11.112;2023-03-23T02:40:50;13.30;99.90
6008;DHT22;3032;49.484;11.112;2023-03-23T02:43:21;13.20;99.90
6008;DHT22;3032;49.484;11.112;2023-03-23T02:45:47;13.20;99.90
6008;DHT22;3032;49.484;11.112;2023-03-23T02:48:18;13.10;99.90
6008;DHT22;3032;49.484;11.112;2023-03-23T02:50:48;13.30;99.90
6008;DHT22;3032;49.484;11.112;2023-03-23T02:53:18;13.40;99.90
6008;DHT22;3032;49.484;11.112;2023-03-23T02:55:45;13.50;99.90
6008;DHT22;3032;49.484;11.112;2023-03-23T02:58:12;13.50;99.90
6008;DHT22;3032;49.484;11.112;2023-03-23T03:00:38;13.70;99.90
6008;DHT22;3032;49.484;11.112;2023-03-23T03:03:05;13.60;99.90
6008;DHT22;3032;49.484;11.112;2023-03-23T03:08:34;13.70;99.90
6008;DHT22;3032;49.484;11.112;2023-03-23T03:11:16;14.00;99.90
6008;DHT22;3032;49.484;11.112;2023-03-23T03:13:50;14.20;99.90
6008;DHT22;3032;49.484;11.112;2023-03-23T03:16:31;13.60;99.90
6008;DHT22;3032;49.484;11.112;2023-03-23T03:19:14;13.90;99.90
6008;DHT22;3032;49.484;11.112;2023-03-23T03:21:44;13.80;99.90
6008;DHT22;3032;49.484;11.112;2023-03-23T03:24:14;13.80;99.90
6008;DHT22;3032;49.484;11.112;2023-03-23T03:26:44;13.80;99.90
6008;DHT22;3032;49.484;11.112;2023-03-23T03:29:11;13.80;99.90
6008;DHT22;3032;49.484;11.112;2023-03-23T03:31:39;13.70;99.90
6008;DHT22;3032;49.484;11.112;2023-03-23T03:34:11;13.80;99.90
6008;DHT22;3032;49.484;11.112;2023-03-23T03:36:36;14.00;99.90
6008;DHT22;3032;49.484;11.112;2023-03-23T03:39:08;13.90;99.90
6008;DHT22;3032;49.484;11.112;2023-03-23T03:41:35;13.50;99.90
6008;DHT22;3032;49.484;11.112;2023-03-23T03:44:02;13.50;99.90
6008;DHT22;3032;49.484;11.112;2023-03-23T03:46:27;13.80;99.90
6008;DHT22;3032;49.484;11.112;2023-03-23T03:48:55;13.50;99.90
6008;DHT22;3032;49.484;11.112;2023-03-23T03:51:23;13.30;99.90
6008;DHT22;3032;49.484;11.112;2023-03-23T03:53:48;13.40;99.90
6008;DHT22;3032;49.484;11.112;2023-03-23T03:56:14;13.70;99.90
6008;DHT22;3032;49.484;11.112;2023-03-23T03:58:40;13.60;99.90
6008;DHT22;3032;49.484;11.112;2023-03-23T04:01:08;13.30;99.90
6008;DHT22;3032;49.484;11.112;2023-03-23T04:03:36;13.60;99.90
6008;DHT22;3032;49.484;11.112;2023-03-23T04:06:01;13.50;99.90
6008;DHT22;3032;49.484;11.112;2023-03-23T04:08:27;13.60;99.90
6008;DHT22;3032;49.484;11.112;2023-03-23T04:10:54;13.50;99.90
6008;DHT22;3032;49.484;11.112;2023-03-23T04:13:20;13.60;99.90
6008;DHT22;3032;49.484;11.112;2023-03-23T04:15:46;13.90;99.90
6008;DHT22;3032;49.484;11.112;2023-03-23T04:18:12;14.20;99.90
6008;DHT22;3032;49.484;11.112;2023-03-23T04:20:41;13.80;99.90
6008;DHT22;3032;49.484;11.112;2023-03-23T04:23:06;13.40;99.90
6008;DHT22;3032;49.484;11.112;2023-03-23T04:25:32;13.30;99.90
6008;DHT22;3032;49.484;11.112;2023-03-23T04:27:59;13.10;99.90
6008;DHT22;3032;49.484;11.112;2023-03-23T04:30:27;13.10;99.90
6008;DHT22;3032;49.484;11.112;2023-03-23T04:32:53;13.50;99.90
6008;DHT22;3032;49.484;11.112;2023-03-23T04:35:24;13.60;99.90
6008;DHT22;3032;49.484;11.112;2023-03-23T04:37:53;13.70;99.90
6008;DHT22;3032;49.484;11.112;2023-03-23T04:40:19;14.00;99.90
6008;DHT22;3032;49.484;11.112;2023-03-23T04:42:45;14.40;99.90
6008;DHT22;3032;49.484;11.112;2023-03-23T04:45:18;14.30;99.90
6008;DHT22;3032;49.484;11.112;2023-03-23T04:47:48;14.30;99.90
6008;DHT22;3032;49.484;11.112;2023-03-23T04:50:20;14.10;99.90
6008;DHT22;3032;49.484;11.112;2023-03-23T04:52:45;14.00;99.90
6008;DHT22;3032;49.484;11.112;2023-03-23T04:55:12;13.50;99.90
6008;DHT22;3032;49.484;11.112;2023-03-23T04:57:38;13.60;99.90
6008;DHT22;3032;49.484;11.112;2023-03-23T05:00:04;13.40;99.90
6008;DHT22;3032;49.484;11.112;2023-03-23T05:02:37;13.70;99.90
6008;DHT22;3032;49.484;11.112;2023-03-23T05:05:05;13.80;99.90
6008;DHT22;3032;49.484;11.112;2023-03-23T05:07:31;13.80;99.90
6008;DHT22;3032;49.484;11.112;2023-03-23T05:09:57;13.70;99.90
6008;DHT22;3032;49.484;11.112;2023-03-23T05:12:22;13.70;99.90
6008;DHT22;3032;49.484;11.112;2023-03-23T05:14:48;13.70;99.90
6008;DHT22;3032;49.484;11.112;2023-03-23T05:17:14;13.40;99.90
6008;DHT22;3032;49.484;11.112;2023-03-23T05:19:42;13.40;99.90
6008;DHT22;3032;49.484;11.112;2023-03-23T05:22:10;13.60;99.90
6008;DHT22;3032;49.484;11.112;2023-03-23T05:24:38;14.00;99.90
6008;DHT22;3032;49.484;11.112;2023-03-23T05:27:03;13.90;99.90
6008;DHT22;3032;49.484;11.112;2023-03-23T05:29:29;13.70;99.90
6008;DHT22;3032;49.484;11.112;2023-03-23T05:31:59;13.80;99.90
6008;DHT22;3032;49.484;11.112;2023-03-23T05:34:28;13.60;99.90
6008;DHT22;3032;49.484;11.112;2023-03-23T05:36:54;13.30;99.90
6008;DHT22;3032;49.484;11.112;2023-03-23T05:39:21;13.20;99.90
6008;DHT22;3032;49.484;11.112;2023-03-23T05:41:47;13.20;99.90
6008;DHT22;3032;49.484;11.112;2023-03-23T05:44:12;13.40;99.90
6008;DHT22;3032;49.484;11.112;2023-03-23T05:46:41;13.50;99.90
6008;DHT22;3032;49.484;11.112;2023-03-23T05:49:07;13.70;99.90
6008;DHT22;3032;49.484;11.112;2023-03-23T05:51:33;13.80;99.90
6008;DHT22;3032;49.484;11.112;2023-03-23T05:53:58;14.00;99.90
6008;DHT22;3032;49.484;11.112;2023-03-23T05:56:24;13.50;99.90
6008;DHT22;3032;49.484;11.112;2023-03-23T05:58:50;13.70;99.90
6008;DHT22;3032;49.484;11.112;2023-03-23T06:01:15;13.70;99.90
6008;DHT22;3032;49.484;11.112;2023-03-23T06:03:41;13.80;99.90
6008;DHT22;3032;49.484;11.112;2023-03-23T06:06:10;13.90;99.90
6008;DHT22;3032;49.484;11.112;2023-03-23T06:08:36;14.30;99.90
6008;DHT22;3032;49.484;11.112;2023-03-23T06:11:03;14.40;99.90
6008;DHT22;3032;49.484;11.112;2023-03-23T06:13:28;14.50;99.90
6008;DHT22;3032;49.484;11.112;2023-03-23T06:15:57;14.50;99.90
6008;DHT22;3032;49.484;11.112;2023-03-23T06:18:23;14.60;99.90
6008;DHT22;3032;49.484;11.112;2023-03-23T06:20:49;14.90;99.90
6008;DHT22;3032;49.484;11.112;2023-03-23T06:23:15;15.00;99.90
6008;DHT22;3032;49.484;11.112;2023-03-23T06:25:40;15.10;99.90
6008;DHT22;3032;49.484;11.112;2023-03-23T06:28:06;15.10;99.90
6008;DHT22;3032;49.484;11.112;2023-03-23T06:30:32;15.20;99.90
6008;DHT22;3032;49.484;11.112;2023-03-23T06:32:57;14.80;99.90
6008;DHT22;3032;49.484;11.112;2023-03-23T06:35:23;14.80;99.90
6008;DHT22;3032;49.484;11.112;2023-03-23T06:37:49;15.10;99.90
6008;DHT22;3032;49.484;11.112;2023-03-23T06:40:14;15.10;99.90
6008;DHT22;3032;49.484;11.112;2023-03-23T06:42:43;14.70;99.90
6008;DHT22;3032;49.484;11.112;2023-03-23T06:45:09;14.60;99.90
6008;DHT22;3032;49.484;11.112;2023-03-23T06:47:35;14.50;99.90
6008;DHT22;3032;49.484;11.112;2023-03-23T06:50:01;14.50;99.90
6008;DHT22;3032;49.484;11.112;2023-03-23T06:52:26;14.90;99.90
6008;DHT22;3032;49.484;11.112;2023-03-23T06:54:53;15.30;99.90
6008;DHT22;3032;49.484;11.112;2023-03-23T06:57:19;15.40;99.90
6008;DHT22;3032;49.484;11.112;2023-03-23T06:59:45;15.70;99.90
6008;DHT22;3032;49.484;11.112;2023-03-23T07:02:12;15.80;99.90
6008;DHT22;3032;49.484;11.112;2023-03-23T07:04:39;15.60;99.90
6008;DHT22;3032;49.484;11.112;2023-03-23T07:07:07;15.80;99.90
6008;DHT22;3032;49.484;11.112;2023-03-23T07:09:33;15.90;99.90
6008;DHT22;3032;49.484;11.112;2023-03-23T07:11:58;16.20;99.80
6008;DHT22;3032;49.484;11.112;2023-03-23T07:14:24;15.90;99.80
6008;DHT22;3032;49.484;11.112;2023-03-23T07:16:50;16.00;99.90
6008;DHT22;3032;49.484;11.112;2023-03-23T07:19:16;16.10;99.90
6008;DHT22;3032;49.484;11.112;2023-03-23T07:21:41;16.30;99.10
6008;DHT22;3032;49.484;11.112;2023-03-23T07:24:10;16.80;99.80
6008;DHT22;3032;49.484;11.112;2023-03-23T07:26:37;17.10;99.50
6008;DHT22;3032;49.484;11.112;2023-03-23T07:29:03;17.70;97.80
6008;DHT22;3032;49.484;11.112;2023-03-23T07:31:28;17.70;97.30
6008;DHT22;3032;49.484;11.112;2023-03-23T07:33:54;17.80;97.10
6008;DHT22;3032;49.484;11.112;2023-03-23T07:36:19;17.50;97.20
6008;DHT22;3032;49.484;11.112;2023-03-23T07:38:45;17.30;97.10
6008;DHT22;3032;49.484;11.112;2023-03-23T07:41:11;16.70;97.70
6008;DHT22;3032;49.484;11.112;2023-03-23T07:43:36;16.80;97.50
6008;DHT22;3032;49.484;11.112;2023-03-23T07:46:02;16.60;98.30
6008;DHT22;3032;49.484;11.112;2023-03-23T07:48:28;17.00;98.20
6008;DHT22;3032;49.484;11.112;2023-03-23T07:50:53;17.30;98.10
6008;DHT22;3032;49.484;11.112;2023-03-23T07:53:19;17.10;97.40
6008;DHT22;3032;49.484;11.112;2023-03-23T07:55:46;16.70;97.70
6008;DHT22;3032;49.484;11.112;2023-03-23T07:58:12;16.40;99.20
6008;DHT22;3032;49.484;11.112;2023-03-23T08:00:43;16.20;99.90
6008;DHT22;3032;49.484;11.112;2023-03-23T08:03:09;16.30;99.90
6008;DHT22;3032;49.484;11.112;2023-03-23T08:05:35;16.50;99.90
6008;DHT22;3032;49.484;11.112;2023-03-23T08:08:00;17.00;99.90
6008;DHT22;3032;49.484;11.112;2023-03-23T08:10:26;17.20;99.90
6008;DHT22;3032;49.484;11.112;2023-03-23T08:12:54;17.30;99.90
6008;DHT22;3032;49.484;11.112;2023-03-23T08:15:21;17.10;99.90
6008;DHT22;3032;49.484;11.112;2023-03-23T08:17:47;17.30;99.90
6008;DHT22;3032;49.484;11.112;2023-03-23T08:20:13;17.00;99.90
6008;DHT22;3032;49.484;11.112;2023-03-23T08:22:41;16.90;99.90
6008;DHT22;3032;49.484;11.112;2023-03-23T08:25:09;17.00;99.90
6008;DHT22;3032;49.484;11.112;2023-03-23T08:27:35;16.70;99.90
6008;DHT22;3032;49.484;11.112;2023-03-23T08:30:02;16.90;99.90
6008;DHT22;3032;49.484;11.112;2023-03-23T08:32:28;17.10;99.90
6008;DHT22;3032;49.484;11.112;2023-03-23T08:34:54;17.30;99.90
6008;DHT22;3032;49.484;11.112;2023-03-23T08:37:20;17.10;99.90
6008;DHT22;3032;49.484;11.112;2023-03-23T08:39:46;16.80;99.90
6008;DHT22;3032;49.484;11.112;2023-03-23T08:42:12;16.90;99.90
6008;DHT22;3032;49.484;11.112;2023-03-23T08:44:38;16.80;99.90
6008;DHT22;3032;49.484;11.112;2023-03-23T08:47:05;16.30;99.90
6008;DHT22;3032;49.484;11.112;2023-03-23T08:49:31;16.30;99.90
6008;DHT22;3032;49.484;11.112;2023-03-23T08:52:00;16.10;99.90
6008;DHT22;3032;49.484;11.112;2023-03-23T08:54:26;16.30;99.90
6008;DHT22;3032;49.484;11.112;2023-03-23T08:56:52;16.30;99.90
6008;DHT22;3032;49.484;11.112;2023-03-23T08:59:17;16.10;99.90
6008;DHT22;3032;49.484;11.112;2023-03-23T09:01:43;15.60;99.90
6008;DHT22;3032;49.484;11.112;2023-03-23T09:04:09;15.60;99.90
6008;DHT22;3032;49.484;11.112;2023-03-23T09:06:36;16.20;99.90
6008;DHT22;3032;49.484;11.112;2023-03-23T09:09:03;16.70;99.90
6008;DHT22;3032;49.484;11.112;2023-03-23T09:11:35;17.10;99.90
6008;DHT22;3032;49.484;11.112;2023-03-23T09:14:03;17.40;99.90
6008;DHT22;3032;49.484;11.112;2023-03-23T09:16:29;17.90;99.90
6008;DHT22;3032;49.484;11.112;2023-03-23T09:18:54;17.80;99.90
6008;DHT22;3032;49.484;11.112;2023-03-23T09:21:25;18.10;99.90
6008;DHT22;3032;49.484;11.112;2023-03-23T09:23:52;17.50;99.90
6008;DHT22;3032;49.484;11.112;2023-03-23T09:26:18;17.50;99.90
6008;DHT22;3032;49.484;11.112;2023-03-23T09:28:44;17.90;99.90
6008;DHT22;3032;49.484;11.112;2023-03-23T09:31:11;18.20;99.90
6008;DHT22;3032;49.484;11.112;2023-03-23T09:33:37;18.20;99.90
6008;DHT22;3032;49.484;11.112;2023-03-23T09:36:03;18.70;99.90
6008;DHT22;3032;49.484;11.112;2023-03-23T09:38:31;18.90;99.90
6008;DHT22;3032;49.484;11.112;2023-03-23T09:41:24;19.60;99.90
6008;DHT22;3032;49.484;11.112;2023-03-23T09:44:22;19.40;99.90
6008;DHT22;3032;49.484;11.112;2023-03-23T09:49:42;19.40;98.40
6008;DHT22;3032;49.484;11.112;2023-03-23T09:52:12;19.30;98.10
6008;DHT22;3032;49.484;11.112;2023-03-23T09:54:41;19.10;98.00
6008;DHT22;3032;49.484;11.112;2023-03-23T09:57:15;19.10;97.30
6008;DHT22;3032;49.484;11.112;2023-03-23T10:00:08;19.20;98.00
6008;DHT22;3032;49.484;11.112;2023-03-23T10:02:39;19.10;97.40
6008;DHT22;3032;49.484;11.112;2023-03-23T10:05:36;19.60;97.20
6008;DHT22;3032;49.484;11.112;2023-03-23T10:08:09;19.30;97.20
6008;DHT22;3032;49.484;11.112;2023-03-23T10:11:28;19.50;97.20
6008;DHT22;3032;49.484;11.112;2023-03-23T10:16:21;19.20;96.00
6008;DHT22;3032;49.484;11.112;2023-03-23T10:21:43;19.00;96.90
6008;DHT22;3032;49.484;11.112;2023-03-23T10:24:18;19.00;97.80
6008;DHT22;3032;49.484;11.112;2023-03-23T10:29:47;18.50;96.90
6008;DHT22;3032;49.484;11.112;2023-03-23T10:32:19;18.10;98.20
6008;DHT22;3032;49.484;11.112;2023-03-23T10:34:54;18.00;98.40
6008;DHT22;3032;49.484;11.112;2023-03-23T10:37:37;18.00;98.30
6008;DHT22;3032;49.484;11.112;2023-03-23T10:40:11;17.70;99.70
6008;DHT22;3032;49.484;11.112;2023-03-23T10:42:40;17.30;99.30
6008;DHT22;3032;49.484;11.112;2023-03-23T10:45:29;16.70;99.90
6008;DHT22;3032;49.484;11.112;2023-03-23T10:48:17;16.70;99.90
6008;DHT22;3032;49.484;11.112;2023-03-23T10:50:48;16.80;99.90
6008;DHT22;3032;49.484;11.112;2023-03-23T10:53:31;16.90;99.90
6008;DHT22;3032;49.484;11.112;2023-03-23T10:55:58;16.80;99.90
6008;DHT22;3032;49.484;11.112;2023-03-23T10:58:33;16.60;99.90
6008;DHT22;3032;49.484;11.112;2023-03-23T11:01:00;16.40;99.90
6008;DHT22;3032;49.484;11.112;2023-03-23T11:03:43;16.30;99.90
6008;DHT22;3032;49.484;11.112;2023-03-23T11:06:12;16.30;99.90
6008;DHT22;3032;49.484;11.112;2023-03-23T11:09:03;16.30;99.90
6008;DHT22;3032;49.484;11.112;2023-03-23T11:11:39;16.50;99.90
6008;DHT22;3032;49.484;11.112;2023-03-23T11:14:26;16.60;99.90
6008;DHT22;3032;49.484;11.112;2023-03-23T11:17:21;16.60;99.90
6008;DHT22;3032;49.484;11.112;2023-03-23T11:19:45;16.60;99.90
6008;DHT22;3032;49.484;11.112;2023-03-23T11:24:54;16.50;99.90
6008;DHT22;3032;49.484;11.112;2023-03-23T11:27:21;16.30;99.90
6008;DHT22;3032;49.484;11.112;2023-03-23T11:29:54;16.10;99.90
6008;DHT22;3032;49.484;11.112;2023-03-23T11:32:24;16.20;99.90
6008;DHT22;3032;49.484;11.112;2023-03-23T11:34:56;16.30;99.90
6008;DHT22;3032;49.484;11.112;2023-03-23T11:37:32;16.60;99.90
6008;DHT22;3032;49.484;11.112;2023-03-23T11:40:00;16.70;99.90
6008;DHT22;3032;49.484;11.112;2023-03-23T11:45:54;17.10;99.90
6008;DHT22;3032;49.484;11.112;2023-03-23T11:48:42;17.00;99.90
6008;DHT22;3032;49.484;11.112;2023-03-23T11:56:42;17.70;99.90
6008;DHT22;3032;49.484;11.112;2023-03-23T11:59:26;17.80;99.90
6008;DHT22;3032;49.484;11.112;2023-03-23T12:02:28;17.80;99.90
6008;DHT22;3032;49.484;11.112;2023-03-23T12:07:52;17.40;99.90
6008;DHT22;3032;49.484;11.112;2023-03-23T12:18:44;17.50;99.90
6008;DHT22;3032;49.484;11.112;2023-03-23T12:30:19;18.20;99.90
6008;DHT22;3032;49.484;11.112;2023-03-23T12:41:18;18.10;99.90
6008;DHT22;3032;49.484;11.112;2023-03-23T12:44:02;18.10;99.90
6008;DHT22;3032;49.484;11.112;2023-03-23T12:46:35;18.10;99.90
6008;DHT22;3032;49.484;11.112;2023-03-23T12:51:53;18.10;99.90
6008;DHT22;3032;49.484;11.112;2023-03-23T12:54:26;17.80;99.90
6008;DHT22;3032;49.484;11.112;2023-03-23T12:57:09;17.70;99.90
6008;DHT22;3032;49.484;11.112;2023-03-23T12:59:50;18.00;99.90
6008;DHT22;3032;49.484;11.112;2023-03-23T13:02:35;18.00;99.90
6008;DHT22;3032;49.484;11.112;2023-03-23T13:07:59;17.30;99.90
6008;DHT22;3032;49.484;11.112;2023-03-23T13:10:29;17.40;99.90
6008;DHT22;3032;49.484;11.112;2023-03-23T13:12:56;17.50;99.90
6008;DHT22;3032;49.484;11.112;2023-03-23T13:18:31;17.20;99.90
6008;DHT22;3032;49.484;11.112;2023-03-23T13:23:39;17.60;99.90
6008;DHT22;3032;49.484;11.112;2023-03-23T13:26:12;17.40;99.90
6008;DHT22;3032;49.484;11.112;2023-03-23T13:28:58;17.10;99.90
6008;DHT22;3032;49.484;11.112;2023-03-23T13:31:30;17.30;99.90
6008;DHT22;3032;49.484;11.112;2023-03-23T13:34:04;17.60;99.90
6008;DHT22;3032;49.484;11.112;2023-03-23T13:36:35;17.80;99.90
6008;DHT22;3032;49.484;11.112;2023-03-23T13:39:04;17.90;99.90
6008;DHT22;3032;49.484;11.112;2023-03-23T13:41:33;17.90;99.90
6008;DHT22;3032;49.484;11.112;2023-03-23T13:44:23;17.80;99.90
6008;DHT22;3032;49.484;11.112;2023-03-23T13:47:07;18.10;99.90
6008;DHT22;3032;49.484;11.112;2023-03-23T13:49:44;18.20;99.90
6008;DHT22;3032;49.484;11.112;2023-03-23T13:52:35;17.80;99.90
6008;DHT22;3032;49.484;11.112;2023-03-23T14:11:10;18.10;99.90
6008;DHT22;3032;49.484;11.112;2023-03-23T14:13:59;18.40;99.90
6008;DHT22;3032;49.484;11.112;2023-03-23T14:16:36;18.20;99.90
6008;DHT22;3032;49.484;11.112;2023-03-23T14:19:04;18.50;99.90
6008;DHT22;3032;49.484;11.112;2023-03-23T14:21:40;18.60;99.90
6008;DHT22;3032;49.484;11.112;2023-03-23T14:24:16;18.50;99.90
6008;DHT22;3032;49.484;11.112;2023-03-23T14:26:43;18.50;99.90
6008;DHT22;3032;49.484;11.112;2023-03-23T14:29:12;18.60;99.90
6008;DHT22;3032;49.484;11.112;2023-03-23T14:31:39;18.60;99.90
6008;DHT22;3032;49.484;11.112;2023-03-23T14:34:16;18.50;99.90
6008;DHT22;3032;49.484;11.112;2023-03-23T14:36:43;18.60;99.90
6008;DHT22;3032;49.484;11.112;2023-03-23T14:39:28;18.90;99.90
6008;DHT22;3032;49.484;11.112;2023-03-23T14:41:55;19.30;99.90
6008;DHT22;3032;49.484;11.112;2023-03-23T14:44:28;19.50;99.90
6008;DHT22;3032;49.484;11.112;2023-03-23T14:46:56;19.50;99.90
6008;DHT22;3032;49.484;11.112;2023-03-23T14:49:39;19.40;99.90
6008;DHT22;3032;49.484;11.112;2023-03-23T14:52:14;19.70;99.90
6008;DHT22;3032;49.484;11.112;2023-03-23T14:54:41;19.10;99.90
6008;DHT22;3032;49.484;11.112;2023-03-23T14:59:42;18.80;99.90
6008;DHT22;3032;49.484;11.112;2023-03-23T15:02:12;18.70;99.90
6008;DHT22;3032;49.484;11.112;2023-03-23T15:04:38;18.50;99.90
6008;DHT22;3032;49.484;11.112;2023-03-23T15:07:05;18.40;99.90
6008;DHT22;3032;49.484;11.112;2023-03-23T15:09:31;18.10;99.90
6008;DHT22;3032;49.484;11.112;2023-03-23T15:12:02;18.30;99.90
6008;DHT22;3032;49.484;11.112;2023-03-23T15:14:48;18.00;99.90
6008;DHT22;3032;49.484;11.112;2023-03-23T15:17:22;17.90;99.90
6008;DHT22;3032;49.484;11.112;2023-03-23T15:19:48;17.70;99.90
6008;DHT22;3032;49.484;11.112;2023-03-23T15:22:26;17.60;99.90
6008;DHT22;3032;49.484;11.112;2023-03-23T15:25:11;17.60;99.90
6008;DHT22;3032;49.484;11.112;2023-03-23T15:27:43;17.70;99.90
6008;DHT22;3032;49.484;11.112;2023-03-23T15:32:44;17.60;99.90
6008;DHT22;3032;49.484;11.112;2023-03-23T15:35:20;17.40;99.90
6008;DHT22;3032;49.484;11.112;2023-03-23T15:37:57;17.30;99.90
6008;DHT22;3032;49.484;11.112;2023-03-23T15:40:24;17.20;99.90
6008;DHT22;3032;49.484;11.112;2023-03-23T15:43:15;17.00;99.90
6008;DHT22;3032;49.484;11.112;2023-03-23T15:48:47;17.40;99.90
6008;DHT22;3032;49.484;11.112;2023-03-23T15:51:13;17.50;99.90
6008;DHT22;3032;49.484;11.112;2023-03-23T15:53:40;17.50;99.90
6008;DHT22;3032;49.484;11.112;2023-03-23T15:56:08;17.70;99.90
6008;DHT22;3032;49.484;11.112;2023-03-23T15:58:36;18.00;99.90
6008;DHT22;3032;49.484;11.112;2023-03-23T16:01:12;18.10;99.90
6008;DHT22;3032;49.484;11.112;2023-03-23T16:03:59;18.50;99.90
6008;DHT22;3032;49.484;11.112;2023-03-23T16:06:27;18.40;99.90
6008;DHT22;3032;49.484;11.112;2023-03-23T16:08:55;18.40;99.90
6008;DHT22;3032;49.484;11.112;2023-03-23T16:11:21;18.50;99.90
6008;DHT22;3032;49.484;11.112;2023-03-23T16:13:47;18.70;99.90
6008;DHT22;3032;49.484;11.112;2023-03-23T16:16:18;18.80;99.90
6008;DHT22;3032;49.484;11.112;2023-03-23T16:18:45;18.90;99.90
6008;DHT22;3032;49.484;11.112;2023-03-23T16:21:11;18.60;99.90
6008;DHT22;3032;49.484;11.112;2023-03-23T16:23:36;18.70;99.90
6008;DHT22;3032;49.484;11.112;2023-03-23T16:26:02;18.70;99.90
6008;DHT22;3032;49.484;11.112;2023-03-23T16:28:28;18.80;99.90
6008;DHT22;3032;49.484;11.112;2023-03-23T16:30:53;18.70;99.90
6008;DHT22;3032;49.484;11.112;2023-03-23T16:33:19;18.50;99.90
6008;DHT22;3032;49.484;11.112;2023-03-23T16:35:44;18.50;99.90
6008;DHT22;3032;49.484;11.112;2023-03-23T16:38:13;18.40;99.90
6008;DHT22;3032;49.484;11.112;2023-03-23T16:40:40;18.30;99.90
6008;DHT22;3032;49.484;11.112;2023-03-23T16:43:06;18.10;99.90
6008;DHT22;3032;49.484;11.112;2023-03-23T16:45:32;18.00;99.90
6008;DHT22;3032;49.484;11.112;2023-03-23T16:47:57;18.40;99.90
6008;DHT22;3032;49.484;11.112;2023-03-23T16:50:27;18.00;99.90
6008;DHT22;3032;49.484;11.112;2023-03-23T16:52:52;17.90;99.90
6008;DHT22;3032;49.484;11.112;2023-03-23T16:55:18;18.30;99.90
6008;DHT22;3032;49.484;11.112;2023-03-23T16:57:44;17.90;99.90
6008;DHT22;3032;49.484;11.112;2023-03-23T17:00:15;17.90;99.90
6008;DHT22;3032;49.484;11.112;2023-03-23T17:02:45;17.90;99.90
6008;DHT22;3032;49.484;11.112;2023-03-23T17:05:11;18.10;99.90
6008;DHT22;3032;49.484;11.112;2023-03-23T17:07:38;18.10;99.90
6008;DHT22;3032;49.484;11.112;2023-03-23T17:10:04;18.20;99.90
6008;DHT22;3032;49.484;11.112;2023-03-23T17:12:31;18.40;99.90
6008;DHT22;3032;49.484;11.112;2023-03-23T17:14:56;18.20;99.90
6008;DHT22;3032;49.484;11.112;2023-03-23T17:17:23;17.90;99.90
6008;DHT22;3032;49.484;11.112;2023-03-23T17:19:48;17.70;99.90
6008;DHT22;3032;49.484;11.112;2023-03-23T17:22:14;17.70;99.90
6008;DHT22;3032;49.484;11.112;2023-03-23T17:24:40;17.60;99.90
6008;DHT22;3032;49.484;11.112;2023-03-23T17:27:06;17.60;99.90
6008;DHT22;3032;49.484;11.112;2023-03-23T17:29:31;17.70;99.90
6008;DHT22;3032;49.484;11.112;2023-03-23T17:31:57;18.10;99.90
6008;DHT22;3032;49.484;11.112;2023-03-23T17:34:22;17.70;99.90
6008;DHT22;3032;49.484;11.112;2023-03-23T17:36:48;17.80;99.90
6008;DHT22;3032;49.484;11.112;2023-03-23T17:39:14;17.90;99.90
6008;DHT22;3032;49.484;11.112;2023-03-23T17:41:39;18.10;99.90
6008;DHT22;3032;49.484;11.112;2023-03-23T17:44:05;17.70;99.90
6008;DHT22;3032;49.484;11.112;2023-03-23T17:46:31;18.00;99.90